PILOTS ONLINE: 258    ATC ONLINE: 23

KRND

Randolph Air Force Base

Location

City Universal City
Country  United States
Latitude 29° 31' 46" N
Longitude 98° 16' 44" W
Elevation 761 ft
Type Large Airport

Map

Weather

METAR
2014/10/25 05:58
KRND 250558Z AUTO 15001KT 9SM CLR 19/14 A3015 RMK AO2 SLP203 T01920135 10250 20189 402990143 50005
TAF
2014/10/24 17:06
TAF KRND 2417/2523 18007KT 9999 SCT050 QNH3005INS 
      BECMG 2423/2424 18007KT 9999 SKC QNH3007INS TX30/2421Z TN15/2512Z LAST NO 
      AMDS AFT 2423 NEXT 2709

Runways

14L/32R 8351 ft / 200 ft
14R/32L 8353 ft / 200 ft

Outbound flights

Callsign Flying to Pilot ATD/STD ETA Aircraft

Inbound flights

Callsign Flying from Pilot ATD ETA Aircraft